createdAt,value
2019-04-29T00:02:34.530Z,57.83
2019-04-29T00:05:04.579Z,58.65
2019-04-29T00:07:33.683Z,56.30
2019-04-29T00:10:03.747Z,58.48
2019-04-29T00:12:32.856Z,60.17
2019-04-29T00:15:09.601Z,56.75
2019-04-29T00:17:43.082Z,56.55
2019-04-29T00:20:13.826Z,57.58
2019-04-29T00:22:42.960Z,70.47
2019-04-29T00:25:12.063Z,60.95
2019-04-29T00:27:41.241Z,59.27
2019-04-29T00:30:12.173Z,61.83
2019-04-29T00:32:41.285Z,59.05
2019-04-29T00:35:10.394Z,64.80
2019-04-29T00:37:49.998Z,59.23
2019-04-29T00:40:35.876Z,62.73
2019-04-29T00:43:06.711Z,59.45
2019-04-29T00:45:36.074Z,59.98
2019-04-29T00:48:05.251Z,58.80
2019-04-29T00:50:34.380Z,58.85
2019-04-29T00:53:03.555Z,66.02
2019-04-29T00:55:34.032Z,61.53
2019-04-29T00:58:03.151Z,60.58
2019-04-29T01:00:33.910Z,60.23
2019-04-29T01:03:03.012Z,65.15
2019-04-29T01:05:32.206Z,61.77
2019-04-29T01:08:01.315Z,65.52
2019-04-29T01:10:30.424Z,64.30
2019-04-29T01:12:59.548Z,61.28
2019-04-29T01:15:28.655Z,61.95
2019-04-29T01:17:57.764Z,58.83
2019-04-29T01:20:26.895Z,61.95
2019-04-29T01:22:56.009Z,61.08
2019-04-29T01:25:25.123Z,58.30
2019-04-29T01:28:07.811Z,61.88
2019-04-29T01:30:55.067Z,62.35
2019-04-29T01:33:24.193Z,60.55
2019-04-29T01:35:54.937Z,62.17
2019-04-29T01:38:24.053Z,62.13
2019-04-29T01:40:54.827Z,57.55
2019-04-29T01:43:25.578Z,59.80
2019-04-29T01:45:54.687Z,59.83
2019-04-29T01:48:23.812Z,57.85
2019-04-29T01:50:52.924Z,58.40
2019-04-29T01:53:22.028Z,63.92
2019-04-29T01:55:51.156Z,42.98
2019-04-29T01:58:20.264Z,58.28
2019-04-29T02:00:49.373Z,59.48
2019-04-29T02:03:18.498Z,58.68
2019-04-29T02:05:47.608Z,58.45
2019-04-29T02:08:16.716Z,59.38
2019-04-29T02:10:45.836Z,57.23
2019-04-29T02:13:14.944Z,73.67
2019-04-29T02:15:44.061Z,57.33
2019-04-29T02:18:13.193Z,57.98
2019-04-29T02:20:42.295Z,60.35
2019-04-29T02:23:15.993Z,58.78
2019-04-29T02:25:49.207Z,58.02
2019-04-29T02:28:18.323Z,58.08
2019-04-29T02:30:49.373Z,60.58
2019-04-29T02:33:18.462Z,69.03
2019-04-29T02:35:47.569Z,57.53
2019-04-29T02:38:24.252Z,56.77
2019-04-29T02:41:00.627Z,59.93
2019-04-29T02:43:33.838Z,58.90
2019-04-29T02:46:02.937Z,57.13
2019-04-29T02:48:34.609Z,56.40
2019-04-29T02:51:02.907Z,57.98
2019-04-29T02:53:32.008Z,56.55
2019-04-29T02:56:01.297Z,63.85
2019-04-29T02:58:32.228Z,61.95
2019-04-29T03:01:19.516Z,58.65
2019-04-29T03:04:05.372Z,57.85
2019-04-29T03:06:34.552Z,58.63
2019-04-29T03:09:04.370Z,56.00
2019-04-29T03:11:33.569Z,58.08
2019-04-29T03:14:02.753Z,58.95
2019-04-29T03:16:31.851Z,56.28
2019-04-29T03:19:05.385Z,56.68
2019-04-29T03:21:36.133Z,60.08
2019-04-29T03:24:05.323Z,57.08
2019-04-29T03:26:34.688Z,57.83
2019-04-29T03:29:05.996Z,57.15
2019-04-29T03:31:39.165Z,59.58
2019-04-29T03:34:05.965Z,61.08
2019-04-29T03:36:35.118Z,58.28
2019-04-29T03:39:05.150Z,58.87
2019-04-29T03:41:34.272Z,56.48
2019-04-29T03:44:03.388Z,58.42
2019-04-29T03:46:32.505Z,58.78
2019-04-29T03:49:01.640Z,58.87
2019-04-29T03:51:30.764Z,57.33
2019-04-29T03:53:59.878Z,59.23
2019-04-29T03:56:29.271Z,62.58
2019-04-29T03:58:58.381Z,56.83
2019-04-29T04:01:29.135Z,61.98
2019-04-29T04:04:12.032Z,57.55
2019-04-29T04:06:48.542Z,60.50
2019-04-29T04:09:22.014Z,66.57
2019-04-29T04:11:51.122Z,58.17
2019-04-29T04:14:20.248Z,62.05
2019-04-29T04:17:06.167Z,58.00
2019-04-29T04:19:35.349Z,59.23
2019-04-29T04:22:05.814Z,55.78
2019-04-29T04:24:34.950Z,58.87
2019-04-29T04:27:04.062Z,55.73
2019-04-29T04:29:33.168Z,56.68
2019-04-29T04:32:02.299Z,57.80
2019-04-29T04:34:31.415Z,60.08
2019-04-29T04:37:00.656Z,61.70
2019-04-29T04:39:31.410Z,59.60
2019-04-29T04:42:00.803Z,57.10
2019-04-29T04:44:48.294Z,59.40
2019-04-29T04:47:19.026Z,59.13
2019-04-29T04:49:48.367Z,60.03
2019-04-29T04:52:17.572Z,56.48
2019-04-29T04:54:48.345Z,60.35
2019-04-29T04:57:17.439Z,57.83
2019-04-29T04:59:46.567Z,60.12
2019-04-29T05:02:15.679Z,60.38
2019-04-29T05:04:44.796Z,59.70
2019-04-29T05:07:13.918Z,58.40
2019-04-29T05:09:43.065Z,60.17
2019-04-29T05:12:14.096Z,57.78
2019-04-29T05:14:43.062Z,58.23
2019-04-29T05:17:12.170Z,57.53
2019-04-29T05:19:41.281Z,58.55
2019-04-29T05:22:10.410Z,58.13
2019-04-29T05:24:39.518Z,60.50
2019-04-29T05:27:08.626Z,60.20
2019-04-29T05:29:37.751Z,59.30
2019-04-29T05:32:06.864Z,59.10
2019-04-29T05:34:41.825Z,60.75
2019-04-29T05:37:19.096Z,64.47
2019-04-29T05:39:48.238Z,59.42
2019-04-29T05:42:17.403Z,61.90
2019-04-29T05:44:54.011Z,64.72
2019-04-29T05:47:27.939Z,61.70
2019-04-29T05:50:07.415Z,61.58
2019-04-29T05:52:54.874Z,61.88
2019-04-29T05:55:23.996Z,63.05
2019-04-29T05:57:55.841Z,59.73
2019-04-29T06:00:25.573Z,60.38
2019-04-29T06:02:54.703Z,44.98
2019-04-29T06:05:23.821Z,60.52
2019-04-29T06:07:56.183Z,61.55
2019-04-29T06:10:24.733Z,59.55
2019-04-29T06:12:53.955Z,63.28
2019-04-29T06:15:23.085Z,65.92
2019-04-29T06:17:52.203Z,59.50
2019-04-29T06:20:22.869Z,64.90
2019-04-29T06:22:52.095Z,62.48
2019-04-29T06:25:21.229Z,62.38
2019-04-29T06:27:50.786Z,65.20
2019-04-29T06:30:19.964Z,68.57
2019-04-29T06:32:49.091Z,72.62
2019-04-29T06:35:18.199Z,65.08
2019-04-29T06:37:47.308Z,67.87
2019-04-29T06:40:16.447Z,73.40
2019-04-29T06:42:49.407Z,69.25
2019-04-29T06:45:16.784Z,68.33
2019-04-29T06:47:45.914Z,72.08
2019-04-29T06:50:15.308Z,72.42
2019-04-29T06:52:44.415Z,70.95
2019-04-29T06:55:13.609Z,69.80
2019-04-29T06:57:42.731Z,78.62
2019-04-29T07:00:45.115Z,121.00
2019-04-29T07:03:11.423Z,76.70
2019-04-29T07:05:56.012Z,107.20
2019-04-29T07:08:25.456Z,71.42
2019-04-29T07:11:02.980Z,79.97
2019-04-29T07:13:25.709Z,75.47
2019-04-29T07:15:55.478Z,71.45
2019-04-29T07:18:24.596Z,69.25
2019-04-29T07:20:53.709Z,76.42
2019-04-29T07:26:24.094Z,72.15
2019-04-29T07:28:55.633Z,94.97
2019-04-29T07:31:28.286Z,71.42
2019-04-29T07:33:57.890Z,73.87
2019-04-29T07:36:26.522Z,70.10
2019-04-29T07:39:15.311Z,83.20
2019-04-29T07:41:49.487Z,92.65
2019-04-29T07:44:23.665Z,91.35
2019-04-29T07:46:59.176Z,88.60
2019-04-29T07:49:29.245Z,83.05
2019-04-29T07:51:58.943Z,88.15
2019-04-29T07:57:28.963Z,84.77
2019-04-29T07:59:58.240Z,71.80
2019-04-29T08:02:27.947Z,71.75
2019-04-29T08:05:02.968Z,68.33
2019-04-29T08:07:42.458Z,69.42
2019-04-29T08:10:23.236Z,67.27
2019-04-29T08:12:49.478Z,95.77
2019-04-29T08:15:31.758Z,89.17
2019-04-29T08:18:14.417Z,75.80
2019-04-29T08:20:41.515Z,67.37
2019-04-29T08:23:24.066Z,81.45
2019-04-29T08:26:02.704Z,90.72
2019-04-29T08:28:37.078Z,83.27
2019-04-29T08:31:05.019Z,65.85
2019-04-29T08:33:34.153Z,65.52
2019-04-29T08:36:13.652Z,76.05
2019-04-29T08:38:42.776Z,73.35
2019-04-29T08:41:14.788Z,65.37
2019-04-29T08:43:46.462Z,75.47
2019-04-29T08:46:28.421Z,81.42
2019-04-29T08:49:06.138Z,81.25
2019-04-29T08:51:35.678Z,66.72
2019-04-29T08:54:05.160Z,67.50
2019-04-29T08:56:42.480Z,82.02
2019-04-29T08:59:13.461Z,78.28
2019-04-29T09:01:49.122Z,74.00
2019-04-29T09:04:18.279Z,65.28
2019-04-29T09:06:47.398Z,63.38
2019-04-29T09:09:28.491Z,72.08
2019-04-29T09:11:48.319Z,64.25
2019-04-29T09:14:26.789Z,83.80
2019-04-29T09:17:09.011Z,78.97
2019-04-29T09:19:33.507Z,65.95
2019-04-29T09:22:04.257Z,66.62
2019-04-29T09:24:33.416Z,70.95
2019-04-29T09:27:11.157Z,68.83
2019-04-29T09:29:46.478Z,75.22
2019-04-29T09:32:18.579Z,80.50
2019-04-29T09:35:00.546Z,72.87
2019-04-29T09:37:32.456Z,68.00
2019-04-29T09:40:02.320Z,75.17
2019-04-29T09:42:33.089Z,64.70
2019-04-29T09:45:09.639Z,78.72
2019-04-29T09:47:52.663Z,78.65
2019-04-29T09:50:34.154Z,93.50
2019-04-29T09:53:02.215Z,80.05
2019-04-29T09:55:48.887Z,77.12
2019-04-29T09:58:22.086Z,73.95
2019-04-29T10:00:58.956Z,76.02
2019-04-29T10:03:42.179Z,70.75
2019-04-29T10:06:18.080Z,74.80
2019-04-29T10:08:55.111Z,74.58
2019-04-29T10:14:17.570Z,74.55
2019-04-29T10:16:57.198Z,107.45
2019-04-29T10:19:36.817Z,76.90
2019-04-29T10:22:08.299Z,69.80
2019-04-29T10:24:39.633Z,91.30
2019-04-29T10:27:08.962Z,71.60
2019-04-29T10:29:42.420Z,84.60
2019-04-29T10:32:25.203Z,84.30
2019-04-29T10:34:58.845Z,91.32
2019-04-29T10:37:31.392Z,73.28
2019-04-29T10:40:25.482Z,86.90
2019-04-29T10:43:17.378Z,97.00
2019-04-29T10:46:06.992Z,75.20
2019-04-29T10:48:44.509Z,77.78
2019-04-29T10:51:27.065Z,85.62
2019-04-29T10:53:55.840Z,80.28
2019-04-29T10:56:39.438Z,71.07
2019-04-29T10:59:12.137Z,75.22
2019-04-29T11:02:17.671Z,78.52
2019-04-29T11:04:51.742Z,94.80
2019-04-29T11:07:39.964Z,94.77
2019-04-29T11:10:25.340Z,78.80
2019-04-29T11:12:55.553Z,77.37
2019-04-29T11:15:49.273Z,83.20
2019-04-29T11:18:22.615Z,83.07
2019-04-29T11:21:09.040Z,89.70
2019-04-29T11:23:43.799Z,75.05
2019-04-29T11:26:16.090Z,74.00
2019-04-29T11:28:46.994Z,90.42
2019-04-29T11:31:19.349Z,81.40
2019-04-29T11:34:11.558Z,72.35
2019-04-29T11:36:47.662Z,75.22
2019-04-29T11:39:19.747Z,82.12
2019-04-29T11:41:54.717Z,87.17
2019-04-29T11:44:31.960Z,86.15
2019-04-29T11:47:06.682Z,77.30
2019-04-29T11:49:44.132Z,81.30
2019-04-29T11:52:23.670Z,77.58
2019-04-29T11:55:13.997Z,68.45
2019-04-29T11:57:59.918Z,88.45
2019-04-29T12:00:54.417Z,74.20
2019-04-29T12:03:37.523Z,89.13
2019-04-29T12:06:10.172Z,89.22
2019-04-29T12:08:48.176Z,81.72
2019-04-29T12:11:17.568Z,80.62
2019-04-29T12:13:59.052Z,83.58
2019-04-29T12:16:35.969Z,75.75
2019-04-29T12:19:17.178Z,96.17
2019-04-29T12:21:48.529Z,89.13
2019-04-29T12:24:21.848Z,78.85
2019-04-29T12:26:50.952Z,75.42
2019-04-29T12:29:24.135Z,83.95
2019-04-29T12:32:01.847Z,86.72
2019-04-29T12:34:45.185Z,86.55
2019-04-29T12:37:45.666Z,91.87
2019-04-29T12:40:35.310Z,85.70
2019-04-29T12:43:25.481Z,87.55
2019-04-29T12:45:59.339Z,82.72
2019-04-29T12:48:40.340Z,86.35
2019-04-29T12:51:17.042Z,85.32
2019-04-29T12:53:51.891Z,94.83
2019-04-29T12:56:26.176Z,80.03
2019-04-29T12:58:59.694Z,86.40
2019-04-29T13:01:55.927Z,79.10
2019-04-29T13:04:19.896Z,79.12
2019-04-29T13:07:06.941Z,82.37
2019-04-29T13:09:49.673Z,84.72
2019-04-29T13:12:22.400Z,86.47
2019-04-29T13:15:07.871Z,94.97
2019-04-29T13:17:41.057Z,83.22
2019-04-29T13:20:13.263Z,91.35
2019-04-29T13:22:52.500Z,91.42
2019-04-29T13:25:27.553Z,103.15
2019-04-29T13:28:29.769Z,87.17
2019-04-29T13:31:07.743Z,99.03
2019-04-29T13:33:51.081Z,85.77
2019-04-29T13:36:34.754Z,94.35
2019-04-29T13:39:01.809Z,87.72
2019-04-29T13:41:56.341Z,93.78
2019-04-29T13:44:23.140Z,87.40
2019-04-29T13:47:11.467Z,99.00
2019-04-29T13:49:50.784Z,92.47
2019-04-29T13:52:23.847Z,104.35
2019-04-29T13:54:53.004Z,89.77
2019-04-29T13:57:26.865Z,102.75
2019-04-29T14:00:02.258Z,93.92
2019-04-29T14:02:41.170Z,91.57
2019-04-29T14:05:18.156Z,93.73
2019-04-29T14:10:51.234Z,98.12
2019-04-29T14:13:20.960Z,132.00
2019-04-29T14:15:49.289Z,92.08
2019-04-29T14:18:20.042Z,88.35
2019-04-29T14:20:51.881Z,84.70
2019-04-29T14:23:20.014Z,86.82
2019-04-29T14:25:49.173Z,84.90
2019-04-29T14:28:19.854Z,91.50
2019-04-29T14:30:51.155Z,87.05
2019-04-29T14:33:24.307Z,86.60
2019-04-29T14:36:02.815Z,113.08
2019-04-29T14:38:40.022Z,136.68
2019-04-29T14:41:06.685Z,79.00
2019-04-29T14:43:46.543Z,73.95
2019-04-29T14:46:28.368Z,76.25
2019-04-29T14:49:06.201Z,82.62
2019-04-29T14:51:50.734Z,70.70
2019-04-29T14:54:21.229Z,73.30
2019-04-29T14:57:09.221Z,71.82
2019-04-29T14:59:39.193Z,72.47
2019-04-29T15:02:16.797Z,76.25
2019-04-29T15:04:53.510Z,82.27
2019-04-29T15:07:28.875Z,76.87
2019-04-29T15:09:58.720Z,71.55
2019-04-29T15:12:51.187Z,70.00
2019-04-29T15:15:29.737Z,65.40
2019-04-29T15:18:16.462Z,66.67
2019-04-29T15:20:43.651Z,64.75
2019-04-29T15:23:12.778Z,69.90
2019-04-29T15:25:41.920Z,67.72
2019-04-29T15:28:11.101Z,66.55
2019-04-29T15:30:41.960Z,72.27
2019-04-29T15:33:21.944Z,77.20
2019-04-29T15:35:54.981Z,78.45
2019-04-29T15:38:22.289Z,66.47
2019-04-29T15:40:51.414Z,65.42
2019-04-29T15:43:24.508Z,63.40
2019-04-29T15:45:54.726Z,73.62
2019-04-29T15:48:34.330Z,71.12
2019-04-29T15:51:15.418Z,81.57
2019-04-29T15:53:48.316Z,68.35
2019-04-29T15:56:28.385Z,74.97
2019-04-29T15:58:59.576Z,68.25
2019-04-29T16:01:31.024Z,71.75
2019-04-29T16:04:08.452Z,82.65
2019-04-29T16:06:56.275Z,87.00
2019-04-29T16:09:50.586Z,96.02
2019-04-29T16:12:11.492Z,86.32
2019-04-29T16:14:35.890Z,86.47
2019-04-29T16:17:05.103Z,81.70
2019-04-29T16:19:34.407Z,89.47
2019-04-29T16:22:03.695Z,82.62
2019-04-29T16:24:38.510Z,97.92
2019-04-29T16:29:46.092Z,75.17
2019-04-29T16:32:15.935Z,90.92
2019-04-29T16:34:54.343Z,88.25
2019-04-29T16:37:31.735Z,87.67
2019-04-29T16:40:06.573Z,81.50
2019-04-29T16:42:42.188Z,89.65
2019-04-29T16:45:14.161Z,82.30
2019-04-29T16:47:47.641Z,91.05
2019-04-29T16:50:20.019Z,92.22
2019-04-29T16:52:50.630Z,86.08
2019-04-29T16:55:20.821Z,85.03
2019-04-29T16:57:50.570Z,96.08
2019-04-29T17:00:24.451Z,89.45
2019-04-29T17:02:56.595Z,78.97
2019-04-29T17:05:25.957Z,89.50
2019-04-29T17:10:35.138Z,85.85
2019-04-29T17:13:09.004Z,86.37
2019-04-29T17:15:44.468Z,90.57
2019-04-29T17:18:13.985Z,81.65
2019-04-29T17:23:23.661Z,84.00
2019-04-29T17:25:46.546Z,92.30
2019-04-29T17:28:29.353Z,89.42
2019-04-29T17:31:14.284Z,81.20
2019-04-29T17:33:59.005Z,85.50
2019-04-29T17:35:18.629Z,84.17
2019-04-29T17:36:29.364Z,90.80
2019-04-29T17:39:00.026Z,91.90
2019-04-29T17:41:29.546Z,93.42
2019-04-29T17:44:06.666Z,101.18
2019-04-29T17:46:40.058Z,86.67
2019-04-29T17:49:30.565Z,85.80
2019-04-29T17:54:48.730Z,104.45
2019-04-29T17:57:36.523Z,87.92
2019-04-29T18:00:15.826Z,92.90
2019-04-29T18:03:05.406Z,104.32
2019-04-29T18:05:57.834Z,93.82
2019-04-29T18:08:31.907Z,84.70
2019-04-29T18:11:06.489Z,86.63
2019-04-29T18:13:35.280Z,87.30
2019-04-29T18:16:17.335Z,96.57
2019-04-29T18:19:00.301Z,83.90
2019-04-29T18:21:50.643Z,96.60
2019-04-29T18:24:22.704Z,90.07
2019-04-29T18:26:53.951Z,92.17
2019-04-29T18:29:25.784Z,93.90
2019-04-29T18:32:00.537Z,92.53
2019-04-29T18:34:37.447Z,104.80
2019-04-29T18:37:08.428Z,107.47
2019-04-29T18:39:38.467Z,86.32
2019-04-29T18:42:13.706Z,91.78
2019-04-29T18:44:56.423Z,84.07
2019-04-29T18:47:22.610Z,106.22
2019-04-29T18:49:50.655Z,88.33
2019-04-29T18:52:26.549Z,115.35
2019-04-29T18:54:59.497Z,88.65
2019-04-29T18:57:32.751Z,80.75
2019-04-29T19:00:12.730Z,112.70
2019-04-29T19:02:52.473Z,93.82
2019-04-29T19:05:32.490Z,85.05
2019-04-29T19:08:11.452Z,104.20
2019-04-29T19:10:41.563Z,91.80
2019-04-29T19:13:05.391Z,116.90
2019-04-29T19:15:39.889Z,101.82
2019-04-29T19:18:17.522Z,118.28
2019-04-29T19:20:52.925Z,113.30
2019-04-29T19:23:29.463Z,86.70
2019-04-29T19:26:03.386Z,97.50
2019-04-29T19:28:34.676Z,84.70
2019-04-29T19:31:09.857Z,124.67
2019-04-29T19:33:42.864Z,80.40
2019-04-29T19:36:18.511Z,115.10
2019-04-29T19:38:48.869Z,91.65
2019-04-29T19:41:18.255Z,78.83
2019-04-29T19:43:55.052Z,99.87
2019-04-29T19:46:25.327Z,84.28
2019-04-29T19:49:09.835Z,102.75
2019-04-29T19:51:43.532Z,104.67
2019-04-29T19:54:11.940Z,84.25
2019-04-29T19:56:44.753Z,114.88
2019-04-29T19:59:18.089Z,118.05
2019-04-29T20:02:02.129Z,89.60
2019-04-29T20:04:28.218Z,95.57
2019-04-29T20:07:06.026Z,108.42
2019-04-29T20:09:32.447Z,94.65
2019-04-29T20:12:09.230Z,103.65
2019-04-29T20:14:33.982Z,72.55
2019-04-29T20:17:12.682Z,72.37
2019-04-29T20:20:00.302Z,71.65
2019-04-29T20:22:29.670Z,72.17
2019-04-29T20:25:00.581Z,72.40
2019-04-29T20:27:30.999Z,73.95
2019-04-29T20:30:15.688Z,79.53
2019-04-29T20:32:42.833Z,77.00
2019-04-29T20:35:15.866Z,78.83
2019-04-29T20:37:52.097Z,78.70
2019-04-29T20:40:26.861Z,88.33
2019-04-29T20:43:10.718Z,86.12
2019-04-29T20:45:45.460Z,71.33
2019-04-29T20:48:19.407Z,80.77
2019-04-29T20:50:52.521Z,77.78
2019-04-29T20:53:22.609Z,79.60
2019-04-29T20:55:56.217Z,84.95
2019-04-29T20:58:31.387Z,84.87
2019-04-29T21:01:03.159Z,80.22
2019-04-29T21:03:36.078Z,83.62
2019-04-29T21:06:21.006Z,74.82
2019-04-29T21:08:52.235Z,81.57
2019-04-29T21:11:35.535Z,86.40
2019-04-29T21:14:27.224Z,91.87
2019-04-29T21:16:57.670Z,83.33
2019-04-29T21:19:30.913Z,77.17
2019-04-29T21:22:21.929Z,90.00
2019-04-29T21:24:53.888Z,104.92
2019-04-29T21:27:26.011Z,88.05
2019-04-29T21:29:59.308Z,79.32
2019-04-29T21:32:30.599Z,92.90
2019-04-29T21:35:19.038Z,83.15
2019-04-29T21:38:01.192Z,72.65
2019-04-29T21:40:42.325Z,74.20
2019-04-29T21:43:17.535Z,88.82
2019-04-29T21:45:49.946Z,78.17
2019-04-29T21:48:25.333Z,79.92
2019-04-29T21:50:58.785Z,85.83
2019-04-29T21:53:36.574Z,98.17
2019-04-29T21:56:09.114Z,79.62
2019-04-29T21:58:40.182Z,78.70
2019-04-29T22:01:12.289Z,95.00
2019-04-29T22:03:50.540Z,88.70
2019-04-29T22:06:19.870Z,77.22
2019-04-29T22:08:54.282Z,91.30
2019-04-29T22:11:26.957Z,94.72
2019-04-29T22:14:03.198Z,85.12
2019-04-29T22:16:32.217Z,85.53
2019-04-29T22:19:10.267Z,99.37
2019-04-29T22:21:42.614Z,79.07
2019-04-29T22:24:15.914Z,84.85
2019-04-29T22:26:49.037Z,85.55
2019-04-29T22:29:21.570Z,94.00
2019-04-29T22:31:56.427Z,90.95
2019-04-29T22:34:28.359Z,85.62
2019-04-29T22:37:01.131Z,94.85
2019-04-29T22:39:43.065Z,85.35
2019-04-29T22:42:32.078Z,86.02
2019-04-29T22:45:06.429Z,96.32
2019-04-29T22:47:37.532Z,91.92
2019-04-29T22:50:14.313Z,87.82
2019-04-29T22:52:48.860Z,91.28
2019-04-29T22:55:39.304Z,91.37
2019-04-29T22:58:14.981Z,88.85
2019-04-29T23:00:48.825Z,84.22
2019-04-29T23:03:18.764Z,90.75
2019-04-29T23:08:16.191Z,76.45
2019-04-29T23:10:45.643Z,79.70
2019-04-29T23:13:14.788Z,87.97
2019-04-29T23:15:45.532Z,84.92
2019-04-29T23:18:24.305Z,78.10
2019-04-29T23:20:50.242Z,84.75
2019-04-29T23:23:20.993Z,90.40
2019-04-29T23:25:52.313Z,97.67
2019-04-29T23:28:22.409Z,88.90
2019-04-29T23:30:53.397Z,86.35
2019-04-29T23:33:24.060Z,82.82
2019-04-29T23:35:53.741Z,83.58
2019-04-29T23:38:22.854Z,91.47
2019-04-29T23:40:54.652Z,91.15
2019-04-29T23:43:25.310Z,82.10
2019-04-29T23:45:59.037Z,85.67
2019-04-29T23:48:26.571Z,79.12
2019-04-29T23:50:58.148Z,82.65
2019-04-29T23:53:26.700Z,77.67
2019-04-29T23:56:00.144Z,91.17
2019-04-29T23:58:28.310Z,75.28
